Crystal, Colorado
Current Conditions -  °F | °C
As of 9:38 AM on Friday 24 Oct 2014 (Local Time) from K5SM Reporting Station
Clear Clear  
Wind Chill: 45°   Ceiling: Unl
Heat Index: 45°   Visibility: 10mi
Dew Point: 27°   Wind: 0mph
Humidity: 49%   Direction: NA
Pressure: 30.59"   Gusts: NA
Location:  39.2397°N, 107.215°W
Report Text: K5SM 241538Z AUTO 00000KT 10SM CLR 07/M03 A3059 RMK AO2
Loading
Personal Weather Stations






























Interactive Weather Map
Tropical Storm Tracking
New forecast layout! Learn more

10-Day Weather Forecast

Advertisements
Track Severe Weather on mobile